| time (UTC) | temp F | wind direction | speed MPH | gust MPH | rain 1hr in | rain 24hr in | rain mn in | humidity % | barometer mb |
| 20260506033055 | 49 | 0 | 0.0 | 2.0 | 0.09 | 1.08 | 0.61 | 94 | 1004.5 |
| 20260506032552 | 49 | 0 | 0.0 | 2.0 | 0.08 | 1.07 | 0.60 | 94 | 1004.6 |
| 20260506032053 | 49 | 203 | 0.0 | 3.0 | 0.08 | 1.07 | 0.59 | 94 | 1004.6 |
| 20260506031550 | 49 | 255 | 1.0 | 3.0 | 0.07 | 1.06 | 0.59 | 93 | 1004.6 |
| 20260506031049 | 49 | 0 | 1.0 | 3.0 | 0.06 | 1.04 | 0.57 | 94 | 1004.6 |
| 20260506030551 | 49 | 0 | 0.0 | 4.0 | 0.06 | 1.03 | 0.56 | 94 | 1004.6 |
| 20260506030059 | 49 | 283 | 1.0 | 4.0 | 0.07 | 1.03 | 0.56 | 94 | 1004.6 |
| 20260506025550 | 49 | 339 | 2.0 | 4.0 | 0.06 | 1.03 | 0.55 | 93 | 1004.8 |
| 20260506025051 | 49 | 281 | 1.0 | 5.0 | 0.05 | 1.03 | 0.55 | 93 | 1004.6 |
| 20260506024605 | 49 | 0 | 1.0 | 5.0 | 0.04 | 1.02 | 0.54 | 93 | 1004.7 |
| 20260506024048 | 49 | 0 | 0.0 | 3.0 | 0.04 | 1.02 | 0.54 | 94 | 1004.7 |
| 20260506023548 | 49 | 0 | 0.0 | 7.0 | 0.03 | 1.01 | 0.53 | 94 | 1004.6 |
| 20260506023056 | 49 | 0 | 0.0 | 7.0 | 0.03 | 1.00 | 0.51 | 94 | 1004.6 |
| 20260506022550 | 49 | 333 | 2.0 | 7.0 | 0.03 | 1.00 | 0.51 | 93 | 1004.6 |
| 20260506022050 | 49 | 0 | 1.0 | 6.0 | 0.02 | 0.99 | 0.51 | 93 | 1004.6 |
| 20260506021557 | 49 | 309 | 3.0 | 6.0 | 0.03 | 0.99 | 0.51 | 93 | 1004.6 |
| 20260506021051 | 49 | 47 | 2.0 | 6.0 | 0.03 | 0.99 | 0.51 | 93 | 1004.6 |
| 20260506020551 | 49 | 27 | 2.0 | 6.0 | 0.03 | 0.98 | 0.50 | 93 | 1004.6 |
| 20260506020108 | 49 | 23 | 1.0 | 8.0 | 0.03 | 0.97 | 0.49 | 93 | 1004.6 |
| 20260506015551 | 49 | 293 | 4.0 | 10.0 | 0.04 | 0.97 | 0.49 | 93 | 1004.6 |
| 20260506015051 | 49 | 338 | 3.0 | 10.0 | 0.05 | 0.97 | 0.49 | 93 | 1004.6 |
| 20260506014612 | 49 | 41 | 3.0 | 8.0 | 0.07 | 0.97 | 0.49 | 93 | 1004.7 |
| 20260506014048 | 49 | 49 | 4.0 | 8.0 | 0.08 | 0.97 | 0.49 | 93 | 1004.6 |
| 20260506013551 | 49 | 15 | 2.0 | 8.0 | 0.12 | 0.97 | 0.49 | 93 | 1004.7 |
| 20260506013059 | 49 | 0 | 1.0 | 6.0 | 0.13 | 0.96 | 0.48 | 93 | 1004.8 |
| 20260506012548 | 49 | 351 | 1.0 | 5.0 | 0.14 | 0.96 | 0.48 | 93 | 1004.8 |
| 20260506012048 | 50 | 333 | 2.0 | 5.0 | 0.14 | 0.96 | 0.48 | 93 | 1004.8 |
| 20260506011623 | 50 | 356 | 2.0 | 7.0 | 0.13 | 0.96 | 0.48 | 93 | 1004.8 |
| 20260506011048 | 50 | 332 | 3.0 | 7.0 | 0.12 | 0.95 | 0.47 | 93 | 1004.8 |
| 20260506010553 | 50 | 320 | 0.0 | 5.0 | 0.11 | 0.94 | 0.46 | 93 | 1004.8 |
| 20260506010053 | 50 | 9 | 2.0 | 5.0 | 0.10 | 0.92 | 0.44 | 93 | 1004.8 |
| 20260506005550 | 50 | 356 | 2.0 | 6.0 | 0.11 | 0.92 | 0.44 | 93 | 1004.9 |
| 20260506005050 | 50 | 3 | 3.0 | 6.0 | 0.10 | 0.92 | 0.44 | 93 | 1004.9 |
| 20260506004608 | 50 | 350 | 3.0 | 6.0 | 0.08 | 0.90 | 0.42 | 93 | 1004.9 |
| 20260506004050 | 50 | 318 | 2.0 | 5.0 | 0.08 | 0.88 | 0.40 | 93 | 1005.0 |
| 20260506003550 | 50 | 347 | 3.0 | 5.0 | 0.06 | 0.84 | 0.36 | 93 | 1005.1 |
| 20260506003100 | 50 | 24 | 2.0 | 5.0 | 0.07 | 0.83 | 0.35 | 93 | 1005.1 |
| 20260506002553 | 50 | 43 | 1.0 | 5.0 | 0.08 | 0.82 | 0.34 | 93 | 1005.1 |
| 20260506002050 | 51 | 39 | 2.0 | 5.0 | 0.10 | 0.82 | 0.34 | 93 | 1005.1 |
| 20260506001603 | 51 | 51 | 1.0 | 4.0 | 0.11 | 0.82 | 0.34 | 93 | 1005.2 |
| 20260506001050 | 51 | 63 | 1.0 | 5.0 | 0.11 | 0.82 | 0.34 | 93 | 1005.2 |
| 20260506000553 | 51 | 4 | 2.0 | 6.0 | 0.13 | 0.82 | 0.34 | 93 | 1005.2 |
| 20260506000121 | 51 | 63 | 2.0 | 6.0 | 0.14 | 0.82 | 0.34 | 93 | 1005.3 |
| 20260505235552 | 51 | 34 | 3.0 | 6.0 | 0.14 | 0.81 | 0.33 | 93 | 1005.3 |
| 20260505235050 | 51 | 56 | 2.0 | 5.0 | 0.15 | 0.81 | 0.33 | 93 | 1005.4 |
| 20260505234555 | 51 | 19 | 2.0 | 7.0 | 0.17 | 0.81 | 0.33 | 93 | 1005.4 |
| 20260505234051 | 51 | 60 | 4.0 | 7.0 | 0.17 | 0.80 | 0.32 | 93 | 1005.5 |
| 20260505233550 | 51 | 38 | 2.0 | 5.0 | 0.15 | 0.77 | 0.29 | 93 | 1005.5 |
| 20260505233100 | 51 | 47 | 2.0 | 5.0 | 0.15 | 0.76 | 0.28 | 93 | 1005.5 |
| 20260505232548 | 51 | 4 | 2.0 | 5.0 | 0.14 | 0.74 | 0.25 | 93 | 1005.6 |
| 20260505232053 | 51 | 16 | 2.0 | 5.0 | 0.15 | 0.72 | 0.24 | 93 | 1005.7 |
| 20260505231613 | 51 | 9 | 1.0 | 5.0 | 0.18 | 0.71 | 0.23 | 93 | 1005.7 |
| 20260505231052 | 51 | 70 | 2.0 | 5.0 | 0.19 | 0.70 | 0.22 | 93 | 1005.7 |
| 20260505230548 | 51 | 8 | 2.0 | 4.0 | 0.19 | 0.69 | 0.21 | 93 | 1005.7 |
| 20260505225554 | 51 | 11 | 1.0 | 4.0 | 0.19 | 0.66 | 0.18 | 93 | 1005.8 |
| 20260505225053 | 51 | 53 | 1.0 | 4.0 | 0.18 | 0.66 | 0.18 | 93 | 1005.8 |
| 20260505224557 | 51 | 42 | 1.0 | 4.0 | 0.18 | 0.64 | 0.16 | 93 | 1005.8 |
| 20260505224052 | 51 | 44 | 1.0 | 4.0 | 0.16 | 0.62 | 0.14 | 93 | 1005.9 |
| 20260505223556 | 51 | 20 | 0.0 | 4.0 | 0.14 | 0.61 | 0.13 | 93 | 1006.0 |
| 20260505223050 | 51 | 356 | 1.0 | 4.0 | 0.14 | 0.60 | 0.12 | 93 | 1005.9 |
| 20260505222552 | 51 | 30 | 0.0 | 4.0 | 0.13 | 0.59 | 0.11 | 93 | 1006.0 |
| 20260505222053 | 51 | 24 | 1.0 | 4.0 | 0.10 | 0.55 | 0.07 | 93 | 1006.0 |
| 20260505221558 | 51 | 46 | 0.0 | 4.0 | 0.08 | 0.53 | 0.05 | 93 | 1006.0 |
| 20260505221052 | 51 | 3 | 1.0 | 4.0 | 0.06 | 0.50 | 0.02 | 93 | 1006.0 |
| 20260505220552 | 51 | 20 | 1.0 | 4.0 | 0.05 | 0.49 | 0.01 | 93 | 1006.0 |
| 20260505220052 | 51 | 49 | 1.0 | 3.0 | 0.05 | 0.48 | 0.00 | 93 | 1006.0 |
| 20260505215552 | 52 | 55 | 1.0 | 3.0 | 0.04 | 0.48 | 0.47 | 93 | 1006.0 |
| 20260505215053 | 52 | 46 | 1.0 | 3.0 | 0.05 | 0.48 | 0.47 | 93 | 1006.1 |
| 20260505214552 | 52 | 50 | 0.0 | 2.0 | 0.05 | 0.47 | 0.46 | 93 | 1006.1 |
| 20260505214053 | 52 | 0 | 0.0 | 2.0 | 0.05 | 0.47 | 0.46 | 93 | 1006.1 |
| 20260505213552 | 52 | 0 | 0.0 | 2.0 | 0.05 | 0.47 | 0.46 | 93 | 1006.2 |
| 20260505213053 | 52 | 0 | 0.0 | 2.0 | 0.05 | 0.46 | 0.45 | 93 | 1006.1 |
| 20260505212554 | 52 | 0 | 0.0 | 2.0 | 0.06 | 0.46 | 0.45 | 93 | 1006.1 |
| 20260505212053 | 52 | 0 | 0.0 | 2.0 | 0.06 | 0.46 | 0.45 | 93 | 1006.2 |
| 20260505211550 | 52 | 0 | 0.0 | 3.0 | 0.06 | 0.45 | 0.44 | 93 | 1006.3 |
| 20260505211053 | 52 | 0 | 0.0 | 3.0 | 0.06 | 0.44 | 0.44 | 93 | 1006.4 |
| 20260505210552 | 52 | 83 | 0.0 | 3.0 | 0.07 | 0.44 | 0.44 | 93 | 1006.4 |
| 20260505210054 | 52 | 0 | 0.0 | 4.0 | 0.07 | 0.44 | 0.43 | 93 | 1006.4 |
| 20260505205553 | 52 | 45 | 1.0 | 4.0 | 0.06 | 0.42 | 0.41 | 93 | 1006.4 |
| 20260505205053 | 52 | 54 | 2.0 | 4.0 | 0.06 | 0.42 | 0.41 | 93 | 1006.5 |
| 20260505204559 | 52 | 46 | 0.0 | 2.0 | 0.06 | 0.41 | 0.40 | 93 | 1006.5 |
| 20260505204052 | 52 | 32 | 0.0 | 2.0 | 0.07 | 0.41 | 0.40 | 93 | 1006.5 |
| 20260505203552 | 52 | 57 | 0.0 | 1.0 | 0.07 | 0.41 | 0.40 | 93 | 1006.5 |
| 20260505203100 | 52 | 0 | 0.0 | 2.0 | 0.07 | 0.40 | 0.40 | 93 | 1006.5 |
| 20260505202552 | 52 | 0 | 0.0 | 3.0 | 0.07 | 0.40 | 0.39 | 92 | 1006.5 |
| 20260505202054 | 52 | 0 | 0.0 | 4.0 | 0.08 | 0.40 | 0.39 | 92 | 1006.6 |
| 20260505201551 | 52 | 103 | 2.0 | 4.0 | 0.08 | 0.39 | 0.38 | 92 | 1006.5 |
| 20260505201052 | 52 | 133 | 1.0 | 3.0 | 0.08 | 0.38 | 0.37 | 92 | 1006.6 |
| 20260505200552 | 52 | 0 | 0.0 | 3.0 | 0.08 | 0.37 | 0.37 | 92 | 1006.5 |
| 20260505200054 | 53 | 138 | 0.0 | 2.0 | 0.08 | 0.37 | 0.36 | 92 | 1006.5 |
| 20260505195552 | 53 | 87 | 1.0 | 3.0 | 0.07 | 0.36 | 0.35 | 93 | 1006.5 |
| 20260505195052 | 53 | 0 | 1.0 | 3.0 | 0.08 | 0.36 | 0.35 | 92 | 1006.5 |
| 20260505194606 | 53 | 71 | 1.0 | 3.0 | 0.07 | 0.35 | 0.34 | 92 | 1006.4 |
| 20260505194052 | 53 | 89 | 1.0 | 3.0 | 0.07 | 0.34 | 0.33 | 92 | 1006.5 |
| 20260505193552 | 53 | 69 | 1.0 | 3.0 | 0.07 | 0.33 | 0.33 | 92 | 1006.5 |
| 20260505193054 | 53 | 59 | 0.0 | 4.0 | 0.07 | 0.33 | 0.32 | 92 | 1006.4 |
| 20260505192552 | 53 | 40 | 1.0 | 4.0 | 0.07 | 0.32 | 0.31 | 92 | 1006.4 |
| 20260505192052 | 53 | 49 | 1.0 | 4.0 | 0.07 | 0.31 | 0.30 | 92 | 1006.4 |
| 20260505191605 | 53 | 53 | 2.0 | 4.0 | 0.07 | 0.30 | 0.29 | 92 | 1006.4 |
| 20260505191055 | 53 | 80 | 1.0 | 3.0 | 0.06 | 0.29 | 0.29 | 92 | 1006.4 |
| 20260505190552 | 53 | 65 | 0.0 | 3.0 | 0.05 | 0.29 | 0.28 | 92 | 1006.4 |
| 20260505190055 | 53 | 0 | 1.0 | 3.0 | 0.04 | 0.28 | 0.27 | 92 | 1006.4 |
| 20260505185552 | 53 | 66 | 0.0 | 3.0 | 0.05 | 0.28 | 0.27 | 92 | 1006.4 |
| 20260505185052 | 53 | 67 | 0.0 | 3.0 | 0.04 | 0.27 | 0.26 | 92 | 1006.4 |
| 20260505184552 | 53 | 60 | 1.0 | 3.0 | 0.04 | 0.27 | 0.26 | 92 | 1006.3 |
| 20260505184052 | 53 | 62 | 1.0 | 2.0 | 0.03 | 0.26 | 0.25 | 92 | 1006.4 |
| 20260505183553 | 53 | 100 | 0.0 | 2.0 | 0.02 | 0.25 | 0.24 | 92 | 1006.4 |
| 20260505183057 | 53 | 0 | 0.0 | 2.0 | 0.02 | 0.25 | 0.24 | 91 | 1006.4 |
| 20260505182554 | 53 | 49 | 0.0 | 2.0 | 0.02 | 0.24 | 0.23 | 91 | 1006.4 |
| 20260505182055 | 53 | 0 | 0.0 | 2.0 | 0.02 | 0.24 | 0.23 | 91 | 1006.4 |
| 20260505181556 | 54 | 54 | 0.0 | 1.0 | 0.01 | 0.23 | 0.22 | 91 | 1006.5 |
| 20260505181053 | 54 | 0 | 0.0 | 1.0 | 0.01 | 0.23 | 0.22 | 91 | 1006.4 |
| 20260505180552 | 54 | 0 | 0.0 | 1.0 | 0.02 | 0.23 | 0.22 | 91 | 1006.4 |
| 20260505180057 | 53 | 0 | 0.0 | 1.0 | 0.02 | 0.23 | 0.22 | 91 | 1006.5 |
| 20260505175552 | 53 | 0 | 0.0 | 1.0 | 0.02 | 0.23 | 0.22 | 91 | 1006.5 |
| 20260505175052 | 53 | 0 | 0.0 | 1.0 | 0.02 | 0.23 | 0.22 | 91 | 1006.5 |
| 20260505174553 | 53 | 0 | 0.0 | 2.0 | 0.03 | 0.23 | 0.22 | 91 | 1006.5 |
| 20260505174052 | 54 | 0 | 0.0 | 2.0 | 0.03 | 0.23 | 0.22 | 91 | 1006.5 |
| 20260505173553 | 54 | 0 | 0.0 | 2.0 | 0.03 | 0.23 | 0.22 | 91 | 1006.5 |
| 20260505173112 | 54 | 0 | 0.0 | 1.0 | 0.03 | 0.23 | 0.22 | 90 | 1006.6 |
| 20260505172552 | 54 | 0 | 0.0 | 2.0 | 0.03 | 0.22 | 0.21 | 91 | 1006.6 |
| 20260505172052 | 54 | 0 | 0.0 | 2.0 | 0.03 | 0.22 | 0.21 | 90 | 1006.6 |
| 20260505171620 | 54 | 271 | 0.0 | 2.0 | 0.03 | 0.22 | 0.21 | 90 | 1006.6 |
| 20260505171052 | 54 | 273 | 0.0 | 2.0 | 0.03 | 0.22 | 0.20 | 90 | 1006.6 |
| 20260505170551 | 54 | 270 | 1.0 | 2.0 | 0.03 | 0.22 | 0.20 | 90 | 1006.6 |
| 20260505170055 | 54 | 268 | 0.0 | 2.0 | 0.03 | 0.22 | 0.20 | 90 | 1006.7 |
| 20260505165552 | 54 | 0 | 0.0 | 2.0 | 0.03 | 0.23 | 0.19 | 90 | 1006.6 |
| 20260505165053 | 54 | 303 | 0.0 | 2.0 | 0.03 | 0.23 | 0.19 | 90 | 1006.7 |
| 20260505164601 | 54 | 299 | 0.0 | 1.0 | 0.03 | 0.22 | 0.18 | 90 | 1006.7 |
| 20260505164050 | 54 | 0 | 0.0 | 2.0 | 0.03 | 0.22 | 0.18 | 90 | 1006.7 |
| 20260505163550 | 54 | 0 | 0.0 | 2.0 | 0.03 | 0.22 | 0.18 | 90 | 1006.6 |
| 20260505163055 | 54 | 0 | 0.0 | 2.0 | 0.03 | 0.22 | 0.18 | 90 | 1006.7 |
| 20260505162549 | 54 | 0 | 0.0 | 2.0 | 0.03 | 0.21 | 0.17 | 90 | 1006.7 |
| 20260505162050 | 54 | 0 | 0.0 | 3.0 | 0.03 | 0.21 | 0.17 | 90 | 1006.7 |
| 20260505161556 | 54 | 0 | 0.0 | 3.0 | 0.03 | 0.21 | 0.17 | 90 | 1006.7 |
| 20260505161050 | 54 | 234 | 0.0 | 3.0 | 0.03 | 0.20 | 0.16 | 90 | 1006.7 |
| 20260505160554 | 54 | 231 | 1.0 | 3.0 | 0.03 | 0.20 | 0.16 | 90 | 1006.7 |
| 20260505153056 | 54 | 245 | 3.0 | 6.0 | 0.03 | 0.21 | 0.14 | 89 | 1006.9 |
| 20260505152549 | 54 | 236 | 2.0 | 6.0 | 0.02 | 0.20 | 0.14 | 89 | 1007.0 |
| 20260505152049 | 54 | 228 | 2.0 | 8.0 | 0.03 | 0.20 | 0.14 | 89 | 1006.9 |
| 20260505151600 | 54 | 249 | 3.0 | 8.0 | 0.03 | 0.20 | 0.14 | 89 | 1007.0 |
| 20260505151050 | 54 | 234 | 4.0 | 8.0 | 0.03 | 0.19 | 0.13 | 88 | 1007.0 |
| 20260505150548 | 54 | 248 | 3.0 | 8.0 | 0.03 | 0.19 | 0.13 | 88 | 1007.0 |
| 20260505150109 | 54 | 207 | 4.0 | 9.0 | 0.04 | 0.19 | 0.13 | 88 | 1007.1 |
| 20260505140548 | 56 | 211 | 1.0 | 4.0 | 0.07 | 0.19 | 0.09 | 89 | 1007.2 |
| 20260505124556 | 58 | 0 | 0.0 | 1.0 | 0.00 | 0.12 | 0.00 | 83 | 1007.5 |
| 20260505124054 | 58 | 0 | 0.0 | 1.0 | 0.00 | 0.12 | 0.00 | 83 | 1007.4 |
| 20260505123553 | 58 | 56 | 0.0 | 1.0 | 0.00 | 0.12 | 0.00 | 83 | 1007.5 |
| 20260505123100 | 58 | 48 | 0.0 | 2.0 | 0.00 | 0.12 | 0.00 | 83 | 1007.3 |
| 20260505122550 | 58 | 0 | 0.0 | 2.0 | 0.00 | 0.12 | 0.00 | 82 | 1007.4 |
| 20260505122050 | 58 | 0 | 0.0 | 3.0 | 0.00 | 0.12 | 0.00 | 81 | 1007.3 |
| 20260505121624 | 58 | 0 | 0.0 | 3.0 | 0.00 | 0.12 | 0.00 | 81 | 1007.4 |
| 20260505121051 | 59 | 0 | 1.0 | 2.0 | 0.00 | 0.12 | 0.00 | 81 | 1007.4 |
| 20260505120550 | 59 | 0 | 0.0 | 2.0 | 0.00 | 0.12 | 0.00 | 81 | 1007.6 |
| 20260505120050 | 58 | 103 | 0.0 | 2.0 | 0.00 | 0.12 | 0.00 | 80 | 1007.6 |
| 20260505115549 | 59 | 5 | 0.0 | 1.0 | 0.00 | 0.16 | 0.00 | 81 | 1007.7 |
| 20260505115048 | 58 | 0 | 0.0 | 3.0 | 0.00 | 0.16 | 0.00 | 81 | 1007.7 |
| 20260505114551 | 58 | 0 | 0.0 | 3.0 | 0.00 | 0.16 | 0.00 | 80 | 1007.7 |
| 20260505114048 | 58 | 0 | 1.0 | 4.0 | 0.00 | 0.16 | 0.00 | 81 | 1007.8 |
| 20260505113550 | 58 | 23 | 1.0 | 4.0 | 0.00 | 0.16 | 0.00 | 82 | 1007.9 |
| 20260505113057 | 59 | 73 | 2.0 | 6.0 | 0.00 | 0.16 | 0.00 | 82 | 1008.0 |
| 20260505112550 | 59 | 23 | 2.0 | 6.0 | 0.00 | 0.16 | 0.00 | 82 | 1007.9 |
| 20260505112050 | 59 | 17 | 2.0 | 5.0 | 0.00 | 0.16 | 0.00 | 81 | 1007.9 |
| 20260505111554 | 59 | 0 | 1.0 | 5.0 | 0.00 | 0.16 | 0.00 | 82 | 1008.0 |
| 20260505111050 | 59 | 325 | 1.0 | 4.0 | 0.00 | 0.16 | 0.00 | 83 | 1007.9 |
| 20260505110547 | 59 | 0 | 1.0 | 6.0 | 0.00 | 0.16 | 0.00 | 81 | 1008.1 |
| 20260505102052 | 58 | 360 | 0.0 | 4.0 | 0.00 | 0.26 | 0.00 | 83 | 1008.4 |
| 20260505101557 | 58 | 330 | 0.0 | 4.0 | 0.00 | 0.26 | 0.00 | 84 | 1008.4 |
| 20260505101052 | 58 | 44 | 1.0 | 3.0 | 0.00 | 0.26 | 0.00 | 84 | 1008.4 |
| 20260505100554 | 57 | 0 | 0.0 | 2.0 | 0.00 | 0.26 | 0.00 | 85 | 1008.5 |
| 20260505100128 | 57 | 0 | 0.0 | 3.0 | 0.00 | 0.26 | 0.00 | 84 | 1008.5 |
| 20260505095556 | 57 | 0 | 0.0 | 6.0 | 0.00 | 0.26 | 0.00 | 84 | 1008.5 |
| 20260505095052 | 57 | 0 | 1.0 | 6.0 | 0.00 | 0.26 | 0.00 | 84 | 1008.5 |
| 20260505094554 | 58 | 340 | 2.0 | 6.0 | 0.00 | 0.26 | 0.00 | 83 | 1008.4 |
| 20260505094052 | 58 | 0 | 1.0 | 2.0 | 0.00 | 0.26 | 0.00 | 84 | 1008.4 |
| 20260505093552 | 58 | 240 | 0.0 | 2.0 | 0.00 | 0.26 | 0.00 | 82 | 1008.3 |
| 20260505093054 | 57 | 164 | 0.0 | 2.0 | 0.00 | 0.26 | 0.00 | 83 | 1008.3 |
| 20260505092554 | 57 | 0 | 0.0 | 3.0 | 0.00 | 0.26 | 0.00 | 82 | 1008.3 |
| 20260505092053 | 58 | 0 | 0.0 | 3.0 | 0.00 | 0.26 | 0.00 | 82 | 1008.4 |
| 20260505091612 | 58 | 258 | 1.0 | 3.0 | 0.00 | 0.26 | 0.00 | 82 | 1008.4 |
| 20260505091051 | 58 | 0 | 1.0 | 3.0 | 0.00 | 0.26 | 0.00 | 82 | 1008.5 |
| 20260505090551 | 58 | 0 | 0.0 | 3.0 | 0.00 | 0.26 | 0.00 | 81 | 1008.5 |
| 20260505090100 | 58 | 0 | 0.0 | 5.0 | 0.00 | 0.26 | 0.00 | 83 | 1008.5 |
| 20260505085552 | 58 | 0 | 1.0 | 5.0 | 0.00 | 0.26 | 0.00 | 83 | 1008.5 |
| 20260505085052 | 58 | 188 | 1.0 | 5.0 | 0.00 | 0.26 | 0.00 | 82 | 1008.6 |
| 20260505084553 | 58 | 0 | 1.0 | 4.0 | 0.00 | 0.26 | 0.00 | 82 | 1008.6 |
| 20260505084053 | 58 | 229 | 1.0 | 4.0 | 0.00 | 0.26 | 0.00 | 82 | 1008.7 |
| 20260505083551 | 57 | 302 | 0.0 | 4.0 | 0.00 | 0.26 | 0.00 | 83 | 1008.6 |
| 20260505083054 | 57 | 115 | 0.0 | 4.0 | 0.00 | 0.26 | 0.00 | 85 | 1008.6 |
| 20260505082548 | 57 | 72 | 1.0 | 4.0 | 0.00 | 0.26 | 0.00 | 86 | 1008.6 |
| 20260505082051 | 57 | 238 | 0.0 | 4.0 | 0.00 | 0.26 | 0.00 | 86 | 1008.7 |
| 20260505081554 | 56 | 133 | 0.0 | 2.0 | 0.00 | 0.26 | 0.00 | 87 | 1008.8 |
| 20260505081052 | 56 | 260 | 0.0 | 2.0 | 0.00 | 0.26 | 0.00 | 87 | 1008.8 |
| 20260505080554 | 56 | 0 | 0.0 | 3.0 | 0.00 | 0.26 | 0.00 | 87 | 1008.9 |
| 20260505080054 | 56 | 0 | 0.0 | 4.0 | 0.00 | 0.26 | 0.00 | 89 | 1008.9 |
| 20260505075552 | 56 | 49 | 0.0 | 4.0 | 0.00 | 0.26 | 0.00 | 89 | 1008.9 |
| 20260505075053 | 56 | 0 | 0.0 | 4.0 | 0.00 | 0.26 | 0.00 | 89 | 1009.0 |
| 20260505074553 | 55 | 171 | 1.0 | 4.0 | 0.00 | 0.26 | 0.00 | 90 | 1009.0 |
| 20260505074054 | 55 | 151 | 0.0 | 3.0 | 0.00 | 0.26 | 0.00 | 91 | 1009.0 |
| 20260505073552 | 55 | 182 | 0.0 | 5.0 | 0.00 | 0.26 | 0.00 | 91 | 1009.0 |
| 20260505073059 | 55 | 147 | 1.0 | 5.0 | 0.00 | 0.26 | 0.00 | 92 | 1009.0 |
| 20260505072551 | 55 | 131 | 1.0 | 5.0 | 0.00 | 0.26 | 0.00 | 92 | 1009.1 |
| 20260505072054 | 55 | 159 | 1.0 | 4.0 | 0.00 | 0.26 | 0.00 | 92 | 1009.1 |
| 20260505071556 | 55 | 133 | 2.0 | 4.0 | 0.00 | 0.26 | 0.00 | 93 | 1009.1 |
| 20260505071051 | 54 | 53 | 1.0 | 5.0 | 0.00 | 0.26 | 0.00 | 93 | 1009.0 |
| 20260505070551 | 54 | 92 | 0.0 | 5.0 | 0.00 | 0.26 | 0.00 | 93 | 1009.1 |
| 20260505070059 | 54 | 0 | 1.0 | 5.0 | 0.00 | 0.26 | 0.00 | 93 | 1009.3 |
| 20260505065548 | 54 | 175 | 2.0 | 5.0 | 0.00 | 0.26 | 0.00 | 94 | 1009.1 |
| 20260505065052 | 53 | 155 | 3.0 | 5.0 | 0.00 | 0.26 | 0.00 | 94 | 1009.2 |
| 20260505064609 | 53 | 0 | 0.0 | 3.0 | 0.00 | 0.26 | 0.00 | 94 | 1009.3 |
| 20260505064052 | 53 | 148 | 1.0 | 3.0 | 0.00 | 0.26 | 0.00 | 94 | 1009.3 |
| 20260505063553 | 53 | 72 | 1.0 | 3.0 | 0.00 | 0.26 | 0.00 | 94 | 1009.2 |
| 20260505063054 | 53 | 84 | 1.0 | 3.0 | 0.00 | 0.26 | 0.00 | 94 | 1009.1 |
| 20260505062552 | 52 | 58 | 1.0 | 3.0 | 0.00 | 0.26 | 0.00 | 94 | 1009.1 |
| 20260505062051 | 52 | 63 | 0.0 | 3.0 | 0.00 | 0.26 | 0.00 | 94 | 1009.3 |
| 20260505061556 | 52 | 60 | 1.0 | 3.0 | 0.00 | 0.26 | 0.00 | 94 | 1009.2 |
| 20260505061051 | 52 | 64 | 0.0 | 3.0 | 0.00 | 0.26 | 0.00 | 94 | 1009.2 |
| 20260505060554 | 52 | 86 | 1.0 | 3.0 | 0.00 | 0.26 | 0.00 | 94 | 1009.3 |
| 20260505060058 | 52 | 54 | 0.0 | 2.0 | 0.00 | 0.26 | 0.00 | 94 | 1009.3 |
| 20260505055551 | 52 | 37 | 0.0 | 2.0 | 0.00 | 0.26 | 0.00 | 94 | 1009.2 |
| 20260505055053 | 52 | 0 | 0.0 | 2.0 | 0.00 | 0.26 | 0.00 | 94 | 1009.3 |
| 20260505054619 | 52 | 79 | 0.0 | 2.0 | 0.00 | 0.26 | 0.00 | 94 | 1009.3 |
| 20260505054054 | 52 | 63 | 0.0 | 2.0 | 0.00 | 0.26 | 0.00 | 94 | 1009.3 |
| 20260505053552 | 52 | 53 | 0.0 | 2.0 | 0.00 | 0.26 | 0.00 | 94 | 1009.3 |
| 20260505053101 | 52 | 89 | 0.0 | 2.0 | 0.00 | 0.26 | 0.00 | 94 | 1009.2 |
| 20260505052552 | 51 | 0 | 0.0 | 2.0 | 0.00 | 0.26 | 0.00 | 94 | 1009.3 |
| 20260505052052 | 51 | 0 | 0.0 | 2.0 | 0.00 | 0.26 | 0.00 | 94 | 1009.3 |
| 20260505051552 | 51 | 0 | 0.0 | 2.0 | 0.00 | 0.26 | 0.00 | 94 | 1009.2 |
| 20260505051052 | 51 | 72 | 0.0 | 2.0 | 0.00 | 0.26 | 0.00 | 94 | 1009.2 |
| 20260505050552 | 51 | 89 | 0.0 | 1.0 | 0.00 | 0.26 | 0.00 | 94 | 1009.2 |
| 20260505041605 | 51 | 62 | 0.0 | 1.0 | 0.00 | 0.26 | 0.00 | 94 | 1009.5 |
| 20260505041052 | 51 | 0 | 0.0 | 2.0 | 0.00 | 0.26 | 0.00 | 94 | 1009.4 |
| 20260505040552 | 0 | 0 | 0.0 | 3.0 | 0.00 | 0.26 | 0.00 | 1009.5 | |
| 20260505040058 | 0 | 79 | 1.0 | 3.0 | 0.00 | 0.26 | 0.00 | 1009.4 | |
| 20260505035551 | 51 | 81 | 0.0 | 2.0 | 0.00 | 0.26 | 0.00 | 94 | 1009.4 |
| 20260505035053 | 51 | 0 | 0.0 | 2.0 | 0.00 | 0.26 | 0.00 | 94 | 1009.5 |
| 20260505034555 | 51 | 59 | 0.0 | 2.0 | 0.00 | 0.26 | 0.00 | 94 | 1009.5 |
| 20260505034052 | 51 | 0 | 0.0 | 1.0 | 0.00 | 0.26 | 0.00 | 94 | 1009.7 |
| 20260505033551 | 51 | 0 | 0.0 | 2.0 | 0.00 | 0.26 | 0.00 | 94 | 1009.7 |